createdAt,value
2022-08-31T00:01:29.145Z,10.33
2022-08-31T00:04:03.269Z,10.48
2022-08-31T00:06:34.780Z,10.42
2022-08-31T00:09:06.956Z,10.46
2022-08-31T00:11:38.177Z,10.45
2022-08-31T00:14:13.178Z,10.48
2022-08-31T00:16:44.894Z,10.39
2022-08-31T00:19:42.048Z,10.29
2022-08-31T00:22:12.292Z,10.24
2022-08-31T00:24:42.543Z,10.40
2022-08-31T00:27:10.398Z,10.31
2022-08-31T00:29:41.932Z,10.39
2022-08-31T00:32:11.966Z,10.40
2022-08-31T00:34:40.508Z,10.27
2022-08-31T00:37:13.957Z,10.31
2022-08-31T00:39:44.096Z,10.28
2022-08-31T00:42:12.459Z,10.14
2022-08-31T00:44:44.102Z,10.15
2022-08-31T00:47:14.438Z,10.19
2022-08-31T00:49:44.325Z,10.16
2022-08-31T00:52:18.648Z,10.16
2022-08-31T00:54:52.511Z,10.04
2022-08-31T00:57:30.116Z,10.01
2022-08-31T01:00:08.667Z,10.06
2022-08-31T01:02:39.006Z,9.77
2022-08-31T01:05:09.728Z,9.88
2022-08-31T01:07:38.523Z,9.86
2022-08-31T01:10:12.393Z,9.92
2022-08-31T01:12:41.312Z,9.86
2022-08-31T01:15:17.667Z,9.89
2022-08-31T01:17:47.759Z,9.92
2022-08-31T01:20:27.977Z,9.90
2022-08-31T01:23:09.159Z,9.89
2022-08-31T01:25:42.054Z,9.78
2022-08-31T01:28:11.394Z,9.84
2022-08-31T01:30:45.974Z,9.80
2022-08-31T01:33:13.907Z,9.77
2022-08-31T01:35:49.359Z,9.72
2022-08-31T01:38:18.545Z,9.61
2022-08-31T01:40:55.076Z,9.74
2022-08-31T01:43:23.068Z,9.66
2022-08-31T01:45:53.545Z,9.76
2022-08-31T01:48:23.993Z,9.76
2022-08-31T01:50:51.986Z,9.63
2022-08-31T01:53:23.060Z,9.63
2022-08-31T01:55:53.560Z,9.67
2022-08-31T01:58:21.179Z,9.59
2022-08-31T02:00:49.006Z,9.54
2022-08-31T02:03:19.419Z,9.53
2022-08-31T02:05:47.273Z,9.48
2022-08-31T02:08:15.110Z,9.37
2022-08-31T02:10:48.300Z,9.44
2022-08-31T02:13:16.142Z,9.36
2022-08-31T02:15:44.032Z,9.46
2022-08-31T02:18:15.946Z,9.50
2022-08-31T02:20:45.857Z,9.37
2022-08-31T02:23:13.715Z,9.37
2022-08-31T02:25:47.106Z,9.39
2022-08-31T02:28:15.213Z,9.32
2022-08-31T02:30:43.798Z,9.31
2022-08-31T02:33:16.158Z,9.29
2022-08-31T02:35:44.047Z,9.12
2022-08-31T02:38:12.796Z,9.08
2022-08-31T02:40:47.787Z,9.12
2022-08-31T02:43:24.517Z,9.05
2022-08-31T02:45:54.790Z,8.86
2022-08-31T02:48:24.938Z,8.93
2022-08-31T02:50:54.896Z,8.71
2022-08-31T02:53:24.324Z,8.87
2022-08-31T02:55:55.283Z,8.89
2022-08-31T02:58:25.381Z,8.77
2022-08-31T03:00:53.622Z,8.79
2022-08-31T03:03:21.972Z,8.68
2022-08-31T03:05:54.346Z,8.64
2022-08-31T03:08:22.160Z,8.60
2022-08-31T03:10:49.979Z,8.48
2022-08-31T03:13:21.225Z,8.55
2022-08-31T03:15:49.119Z,8.48
2022-08-31T03:18:16.935Z,8.37
2022-08-31T03:20:48.981Z,8.44
2022-08-31T03:23:16.903Z,8.41
2022-08-31T03:25:44.845Z,8.34
2022-08-31T03:28:16.869Z,8.25
2022-08-31T03:30:48.036Z,8.02
2022-08-31T03:33:16.190Z,7.92
2022-08-31T03:35:47.022Z,7.70
2022-08-31T03:38:17.343Z,7.69
2022-08-31T03:40:45.768Z,7.63
2022-08-31T03:43:15.991Z,7.77
2022-08-31T03:45:49.641Z,7.78
2022-08-31T03:48:20.073Z,7.69
2022-08-31T03:50:48.459Z,7.61
2022-08-31T03:53:22.664Z,7.68
2022-08-31T03:55:52.827Z,7.68
2022-08-31T03:58:22.910Z,7.80
2022-08-31T04:00:56.397Z,7.82
2022-08-31T04:03:26.634Z,7.80
2022-08-31T04:05:54.457Z,7.86
2022-08-31T04:08:24.844Z,7.84
2022-08-31T04:10:54.206Z,7.82
2022-08-31T04:13:28.044Z,7.68
2022-08-31T04:16:03.802Z,7.76
2022-08-31T04:18:31.618Z,7.74
2022-08-31T04:20:59.423Z,7.74
2022-08-31T04:23:32.121Z,7.70
2022-08-31T04:26:00.204Z,7.64
2022-08-31T04:28:28.096Z,7.69
2022-08-31T04:31:02.180Z,7.77
2022-08-31T04:33:31.411Z,7.94
2022-08-31T04:35:59.570Z,7.82
2022-08-31T04:38:31.509Z,7.95
2022-08-31T04:40:59.291Z,8.15
2022-08-31T04:43:27.893Z,8.48
2022-08-31T04:45:59.847Z,8.57
2022-08-31T04:48:27.797Z,8.46
2022-08-31T04:51:07.092Z,8.76
2022-08-31T04:53:36.282Z,8.79
2022-08-31T04:56:16.479Z,9.15
2022-08-31T04:58:46.249Z,9.55
2022-08-31T05:01:20.864Z,9.66
2022-08-31T05:03:51.153Z,10.02
2022-08-31T05:06:25.980Z,10.27
2022-08-31T05:08:55.912Z,10.57
2022-08-31T05:11:30.089Z,10.51
2022-08-31T05:13:59.518Z,10.43
2022-08-31T05:16:30.744Z,10.34
2022-08-31T05:19:01.182Z,10.45
2022-08-31T05:21:34.563Z,10.35
2022-08-31T05:24:06.936Z,9.97
2022-08-31T05:26:42.155Z,10.09
2022-08-31T05:29:11.344Z,9.91
2022-08-31T05:31:42.503Z,9.86
2022-08-31T05:34:14.657Z,10.02
2022-08-31T05:36:52.301Z,10.14
2022-08-31T05:39:22.438Z,9.93
2022-08-31T05:41:52.563Z,9.99
2022-08-31T05:44:21.317Z,10.13
2022-08-31T05:47:00.908Z,10.11
2022-08-31T05:49:35.204Z,10.14
2022-08-31T05:52:07.312Z,10.14
2022-08-31T05:54:37.889Z,9.89
2022-08-31T05:57:06.049Z,10.01
2022-08-31T05:59:35.954Z,10.23
2022-08-31T06:02:27.515Z,10.12
2022-08-31T06:04:58.280Z,10.39
2022-08-31T06:07:27.630Z,10.88
2022-08-31T06:09:55.520Z,11.38
2022-08-31T06:12:27.835Z,11.35
2022-08-31T06:14:57.850Z,11.57
2022-08-31T06:17:29.283Z,11.62
2022-08-31T06:19:58.101Z,11.64
2022-08-31T06:22:27.679Z,11.67
2022-08-31T06:24:59.649Z,11.79
2022-08-31T06:27:27.683Z,11.83
2022-08-31T06:29:55.502Z,11.79
2022-08-31T06:32:26.319Z,12.00
2022-08-31T06:34:54.470Z,12.30
2022-08-31T06:37:22.273Z,12.51
2022-08-31T06:39:56.404Z,12.78
2022-08-31T06:42:24.161Z,12.71
2022-08-31T06:44:52.661Z,13.03
2022-08-31T06:47:25.097Z,13.26
2022-08-31T06:49:53.688Z,13.16
2022-08-31T06:52:21.679Z,13.06
2022-08-31T06:54:51.261Z,13.29
2022-08-31T06:57:19.736Z,13.74
2022-08-31T06:59:47.521Z,13.66
2022-08-31T07:02:15.916Z,13.89
2022-08-31T07:04:43.878Z,13.74
2022-08-31T07:07:12.259Z,14.01
2022-08-31T07:09:42.735Z,13.92
2022-08-31T07:12:11.819Z,13.88
2022-08-31T07:14:39.811Z,14.01
2022-08-31T07:17:10.372Z,13.95
2022-08-31T07:19:38.275Z,13.97
2022-08-31T07:22:15.544Z,14.24
2022-08-31T07:24:43.610Z,14.19
2022-08-31T07:27:20.448Z,14.33
2022-08-31T07:29:48.323Z,14.18
2022-08-31T07:32:17.534Z,14.11
2022-08-31T07:34:45.758Z,14.39
2022-08-31T07:37:34.160Z,14.39
2022-08-31T07:40:23.677Z,14.63
2022-08-31T07:42:54.128Z,14.71
2022-08-31T07:45:28.495Z,14.97
2022-08-31T07:48:02.492Z,14.83
2022-08-31T07:50:31.760Z,14.84
2022-08-31T07:53:00.430Z,14.52
2022-08-31T07:55:29.463Z,14.78
2022-08-31T07:58:00.496Z,14.98
2022-08-31T08:00:33.248Z,14.87
2022-08-31T08:03:10.945Z,14.91
2022-08-31T08:05:41.827Z,14.80
2022-08-31T08:08:13.977Z,14.97
2022-08-31T08:10:52.416Z,14.92
2022-08-31T08:13:23.316Z,15.16
2022-08-31T08:15:52.481Z,15.21
2022-08-31T08:18:20.996Z,14.76
2022-08-31T08:20:54.918Z,14.93
2022-08-31T08:23:28.847Z,15.00
2022-08-31T08:26:01.548Z,15.19
2022-08-31T08:28:41.092Z,15.60
2022-08-31T08:31:15.998Z,15.75
2022-08-31T08:33:44.963Z,15.88
2022-08-31T08:36:17.266Z,15.89
2022-08-31T08:38:47.421Z,15.89
2022-08-31T08:41:21.294Z,15.88
2022-08-31T08:43:53.177Z,16.01
2022-08-31T08:46:35.164Z,16.34
2022-08-31T08:49:23.518Z,16.95
2022-08-31T08:52:01.141Z,16.37
2022-08-31T08:54:32.792Z,15.85
2022-08-31T08:57:09.320Z,15.72
2022-08-31T08:59:38.557Z,15.74
2022-08-31T09:02:15.083Z,15.81
2022-08-31T09:05:02.168Z,15.73
2022-08-31T09:08:00.945Z,15.82
2022-08-31T09:10:34.572Z,15.83
2022-08-31T09:13:15.979Z,15.60
2022-08-31T09:16:04.094Z,15.98
2022-08-31T09:18:45.195Z,16.18
2022-08-31T09:21:22.678Z,15.92
2022-08-31T09:24:01.615Z,15.84
2022-08-31T09:26:37.531Z,15.96
2022-08-31T09:29:05.672Z,15.82
2022-08-31T09:31:38.512Z,15.83
2022-08-31T09:34:16.188Z,15.89
2022-08-31T09:36:46.940Z,16.11
2022-08-31T09:39:22.276Z,15.94
2022-08-31T09:41:58.026Z,16.48
2022-08-31T09:44:32.840Z,16.53
2022-08-31T09:47:07.188Z,15.88
2022-08-31T09:49:39.799Z,16.41
2022-08-31T09:52:43.134Z,16.32
2022-08-31T09:55:15.703Z,16.55
2022-08-31T09:57:50.425Z,16.37
2022-08-31T10:00:31.812Z,16.64
2022-08-31T10:03:09.711Z,17.22
2022-08-31T10:05:43.764Z,17.24
2022-08-31T10:08:28.124Z,16.14
2022-08-31T10:10:58.646Z,16.03
2022-08-31T10:13:39.544Z,16.14
2022-08-31T10:16:16.431Z,16.23
2022-08-31T10:18:57.617Z,16.20
2022-08-31T10:21:35.416Z,16.38
2022-08-31T10:24:20.546Z,16.30
2022-08-31T10:26:54.266Z,15.78
2022-08-31T10:29:36.416Z,15.87
2022-08-31T10:32:14.070Z,15.66
2022-08-31T10:35:01.051Z,15.58
2022-08-31T10:37:49.350Z,15.50
2022-08-31T10:40:20.982Z,15.50
2022-08-31T10:42:57.811Z,16.31
2022-08-31T10:45:29.994Z,17.20
2022-08-31T10:47:58.863Z,17.61
2022-08-31T10:50:39.273Z,17.02
2022-08-31T10:53:13.776Z,16.50
2022-08-31T10:55:56.198Z,16.08
2022-08-31T10:58:33.146Z,15.84
2022-08-31T11:01:08.784Z,15.92
2022-08-31T11:03:53.600Z,16.38
2022-08-31T11:06:34.837Z,16.80
2022-08-31T11:09:12.972Z,16.70
2022-08-31T11:11:48.946Z,16.01
2022-08-31T11:15:00.519Z,16.54
2022-08-31T11:17:50.933Z,16.97
2022-08-31T11:20:26.298Z,16.11
2022-08-31T11:23:16.500Z,15.92
2022-08-31T11:26:31.962Z,15.99
2022-08-31T11:29:13.319Z,16.41
2022-08-31T11:31:42.769Z,17.12
2022-08-31T11:34:17.262Z,17.00
2022-08-31T11:36:52.048Z,16.80
2022-08-31T11:39:45.485Z,16.28
2022-08-31T11:42:34.340Z,16.27
2022-08-31T11:45:14.041Z,16.36
2022-08-31T11:47:44.394Z,16.77
2022-08-31T11:50:29.206Z,17.10
2022-08-31T11:53:00.245Z,16.83
2022-08-31T11:55:31.617Z,17.41
2022-08-31T11:58:29.091Z,17.15
2022-08-31T12:01:06.894Z,16.82
2022-08-31T12:03:41.362Z,16.68
2022-08-31T12:06:33.774Z,16.54
2022-08-31T12:09:21.036Z,16.79
2022-08-31T12:11:56.671Z,17.11
2022-08-31T12:14:36.550Z,16.93
2022-08-31T12:17:14.107Z,16.65
2022-08-31T12:20:02.855Z,16.54
2022-08-31T12:23:15.381Z,16.28
2022-08-31T12:26:11.167Z,16.09
2022-08-31T12:28:57.783Z,16.17
2022-08-31T12:31:30.565Z,16.52
2022-08-31T12:34:04.358Z,16.65
2022-08-31T12:36:37.609Z,16.89
2022-08-31T12:39:09.013Z,17.00
2022-08-31T12:41:42.864Z,17.17
2022-08-31T12:44:14.186Z,17.61
2022-08-31T12:47:04.241Z,17.43
2022-08-31T12:49:49.954Z,17.10
2022-08-31T12:52:34.509Z,17.38
2022-08-31T12:55:13.640Z,17.54
2022-08-31T12:57:55.350Z,17.40
2022-08-31T13:00:27.947Z,16.80
2022-08-31T13:02:59.048Z,16.16
2022-08-31T13:05:31.402Z,15.01
2022-08-31T13:08:02.366Z,13.77
2022-08-31T13:10:35.944Z,13.24
2022-08-31T13:13:08.823Z,12.86
2022-08-31T13:15:41.021Z,12.92
2022-08-31T13:18:11.891Z,12.99
2022-08-31T13:20:44.100Z,13.05
2022-08-31T13:23:16.960Z,13.22
2022-08-31T13:25:49.685Z,13.31
2022-08-31T13:28:26.183Z,13.60
2022-08-31T13:31:03.551Z,13.56
2022-08-31T13:33:36.689Z,13.53
2022-08-31T13:36:13.074Z,13.86
2022-08-31T13:38:52.212Z,14.34
2022-08-31T13:41:27.317Z,14.46
2022-08-31T13:44:02.702Z,14.39
2022-08-31T13:46:43.312Z,14.51
2022-08-31T13:49:37.183Z,14.74
2022-08-31T13:52:14.834Z,15.13
2022-08-31T13:54:45.010Z,15.67
2022-08-31T13:57:20.613Z,15.93
2022-08-31T13:59:51.887Z,15.85
2022-08-31T14:02:39.526Z,15.59
2022-08-31T14:05:14.798Z,14.94
2022-08-31T14:08:02.129Z,13.97
2022-08-31T14:10:37.051Z,13.36
2022-08-31T14:13:14.395Z,12.90
2022-08-31T14:15:52.560Z,12.66
2022-08-31T14:18:27.603Z,12.93
2022-08-31T14:21:22.004Z,13.16
2022-08-31T14:23:52.705Z,13.28
2022-08-31T14:26:22.937Z,13.66
2022-08-31T14:28:53.272Z,14.01
2022-08-31T14:31:26.253Z,14.03
2022-08-31T14:34:08.226Z,14.36
2022-08-31T14:36:45.719Z,14.40
2022-08-31T14:39:15.772Z,14.56
2022-08-31T14:41:45.208Z,14.47
2022-08-31T14:44:16.601Z,14.40
2022-08-31T14:46:46.840Z,14.39
2022-08-31T14:49:16.199Z,14.41
2022-08-31T14:51:47.035Z,14.64
2022-08-31T14:54:17.112Z,14.96
2022-08-31T14:56:50.818Z,14.84
2022-08-31T14:59:22.055Z,14.77
2022-08-31T15:01:50.750Z,14.72
2022-08-31T15:04:25.686Z,14.51
2022-08-31T15:07:09.470Z,14.70
2022-08-31T15:09:44.196Z,14.80
2022-08-31T15:12:14.805Z,14.71
2022-08-31T15:14:44.804Z,15.05
2022-08-31T15:17:19.288Z,14.99
2022-08-31T15:19:55.189Z,14.97
2022-08-31T15:22:26.465Z,14.98
2022-08-31T15:24:55.153Z,14.89
2022-08-31T15:27:28.904Z,14.86
2022-08-31T15:30:07.669Z,14.63
2022-08-31T15:32:39.070Z,14.55
2022-08-31T15:35:14.216Z,14.54
2022-08-31T15:37:46.696Z,14.47
2022-08-31T15:40:15.291Z,14.34
2022-08-31T15:42:45.223Z,14.27
2022-08-31T15:45:14.889Z,14.20
2022-08-31T15:48:00.191Z,14.23
2022-08-31T15:50:31.494Z,14.26
2022-08-31T15:53:09.431Z,14.27
2022-08-31T15:55:40.993Z,14.25
2022-08-31T15:58:10.228Z,14.30
2022-08-31T16:00:41.698Z,14.20
2022-08-31T16:03:09.634Z,14.22
2022-08-31T16:05:45.279Z,14.22
2022-08-31T16:08:14.290Z,14.20
2022-08-31T16:10:49.129Z,14.24
2022-08-31T16:13:17.721Z,14.18
2022-08-31T16:15:52.826Z,13.85
2022-08-31T16:18:22.592Z,13.86
2022-08-31T16:20:55.604Z,13.90
2022-08-31T16:23:24.808Z,13.85
2022-08-31T16:25:52.869Z,13.82
2022-08-31T16:28:22.989Z,13.92
2022-08-31T16:30:51.801Z,13.79
2022-08-31T16:33:22.036Z,13.69
2022-08-31T16:35:51.519Z,13.55
2022-08-31T16:38:20.255Z,13.36
2022-08-31T16:40:50.739Z,13.46
2022-08-31T16:43:20.954Z,13.29
2022-08-31T16:45:48.783Z,13.35
2022-08-31T16:48:33.894Z,13.02
2022-08-31T16:51:04.002Z,13.09
2022-08-31T16:53:32.447Z,12.85
2022-08-31T16:56:02.492Z,12.96
2022-08-31T17:01:24.029Z,12.87
2022-08-31T17:03:55.881Z,12.72
2022-08-31T17:06:26.639Z,12.71
2022-08-31T17:08:55.394Z,12.53
2022-08-31T17:11:26.302Z,12.55
2022-08-31T17:13:58.449Z,12.39
2022-08-31T17:16:28.670Z,12.32
2022-08-31T17:19:00.871Z,12.09
2022-08-31T17:21:33.356Z,12.11
2022-08-31T17:24:03.330Z,12.00
2022-08-31T17:26:33.892Z,11.87
2022-08-31T17:29:02.804Z,11.68
2022-08-31T17:31:36.931Z,11.69
2022-08-31T17:34:07.054Z,11.63
2022-08-31T17:36:37.793Z,11.65
2022-08-31T17:39:06.474Z,11.51
2022-08-31T17:41:36.918Z,11.60
2022-08-31T17:44:05.512Z,11.44
2022-08-31T17:46:33.987Z,11.23
2022-08-31T17:49:05.864Z,11.02
2022-08-31T17:51:36.525Z,11.02
2022-08-31T17:54:10.842Z,10.93
2022-08-31T17:56:48.099Z,10.81
2022-08-31T17:59:18.686Z,10.68
2022-08-31T18:01:51.618Z,10.51
2022-08-31T18:04:23.146Z,10.33
2022-08-31T18:06:57.757Z,10.34
2022-08-31T18:09:27.956Z,10.30
2022-08-31T18:12:01.773Z,10.21
2022-08-31T18:14:32.334Z,10.15
2022-08-31T18:17:01.527Z,9.94
2022-08-31T18:19:31.920Z,9.94
2022-08-31T18:22:03.897Z,9.84
2022-08-31T18:24:37.269Z,9.73
2022-08-31T18:27:09.234Z,9.52
2022-08-31T18:29:40.730Z,9.55
2022-08-31T18:32:19.943Z,9.43
2022-08-31T18:34:52.116Z,9.37
2022-08-31T18:37:25.981Z,9.36
2022-08-31T18:40:13.747Z,9.37
2022-08-31T18:43:01.326Z,9.36
2022-08-31T18:45:30.906Z,9.42
2022-08-31T18:48:32.032Z,9.32
2022-08-31T18:50:52.826Z,9.31
2022-08-31T18:53:29.574Z,9.27
2022-08-31T18:55:59.524Z,9.12
2022-08-31T18:58:28.818Z,8.92
2022-08-31T19:00:58.210Z,8.97
2022-08-31T19:03:29.279Z,8.97
2022-08-31T19:05:58.477Z,8.95
2022-08-31T19:08:28.656Z,9.01
2022-08-31T19:10:58.581Z,9.11
2022-08-31T19:13:31.339Z,8.96
2022-08-31T19:16:15.919Z,8.99
2022-08-31T19:18:46.417Z,8.93
2022-08-31T19:21:17.363Z,9.10
2022-08-31T19:23:47.261Z,9.15
2022-08-31T19:26:24.591Z,9.08
2022-08-31T19:28:54.164Z,9.11
2022-08-31T19:31:24.612Z,9.05
2022-08-31T19:33:57.201Z,8.99
2022-08-31T19:36:28.635Z,9.08
2022-08-31T19:39:01.246Z,8.92
2022-08-31T19:41:30.286Z,9.07
2022-08-31T19:44:08.556Z,8.99
2022-08-31T19:46:41.817Z,8.96
2022-08-31T19:49:11.113Z,8.68
2022-08-31T19:51:45.755Z,8.77
2022-08-31T19:54:16.317Z,8.64
2022-08-31T19:56:47.795Z,8.74
2022-08-31T19:59:20.135Z,8.64
2022-08-31T20:01:54.459Z,8.58
2022-08-31T20:04:24.538Z,8.60
2022-08-31T20:06:58.499Z,8.46
2022-08-31T20:09:28.010Z,8.38
2022-08-31T20:11:59.966Z,8.43
2022-08-31T20:14:28.042Z,8.16
2022-08-31T20:16:55.840Z,8.45
2022-08-31T20:19:34.709Z,8.49
2022-08-31T20:22:07.819Z,8.40
2022-08-31T20:24:43.885Z,8.42
2022-08-31T20:27:16.474Z,8.43
2022-08-31T20:29:49.218Z,8.24
2022-08-31T20:32:16.855Z,8.39
2022-08-31T20:34:44.820Z,8.34
2022-08-31T20:37:16.977Z,8.18
2022-08-31T20:39:46.180Z,8.40
2022-08-31T20:42:13.986Z,8.28
2022-08-31T20:44:48.863Z,8.37
2022-08-31T20:47:42.681Z,8.41
2022-08-31T20:50:16.074Z,8.46
2022-08-31T20:52:43.875Z,8.48
2022-08-31T20:55:14.276Z,8.40
2022-08-31T20:57:42.113Z,8.57
2022-08-31T21:00:11.897Z,8.63
2022-08-31T21:02:42.043Z,8.51
2022-08-31T21:08:02.574Z,8.79
2022-08-31T21:10:38.324Z,8.77
2022-08-31T21:13:08.244Z,8.90
2022-08-31T21:15:36.217Z,9.00
2022-08-31T21:18:05.930Z,9.13
2022-08-31T21:20:37.560Z,9.31
2022-08-31T21:23:12.771Z,9.38
2022-08-31T21:25:45.781Z,9.54
2022-08-31T21:28:18.934Z,9.65
2022-08-31T21:30:50.471Z,9.79
2022-08-31T21:33:18.840Z,9.80
2022-08-31T21:35:50.202Z,9.85
2022-08-31T21:38:20.940Z,9.90
2022-08-31T21:40:51.424Z,9.76
2022-08-31T21:43:19.439Z,9.86
2022-08-31T21:45:54.965Z,9.76
2022-08-31T21:48:25.795Z,9.86
2022-08-31T21:50:56.743Z,9.73
2022-08-31T21:53:27.269Z,9.68
2022-08-31T21:55:56.368Z,9.61
2022-08-31T21:58:27.059Z,9.69
2022-08-31T22:00:57.401Z,9.63
2022-08-31T22:03:25.203Z,9.57
2022-08-31T22:05:55.314Z,9.69
2022-08-31T22:08:27.918Z,9.45
2022-08-31T22:10:59.987Z,9.47
2022-08-31T22:13:28.347Z,9.46
2022-08-31T22:16:02.184Z,9.45
2022-08-31T22:21:24.307Z,9.43
2022-08-31T22:23:54.572Z,9.32
2022-08-31T22:26:30.269Z,9.30
2022-08-31T22:28:59.298Z,9.08
2022-08-31T22:31:29.482Z,9.11
2022-08-31T22:33:59.520Z,9.03
2022-08-31T22:36:32.354Z,9.14
2022-08-31T22:39:04.559Z,8.99
2022-08-31T22:41:37.295Z,9.04
2022-08-31T22:44:11.121Z,8.99
2022-08-31T22:46:40.490Z,9.09
2022-08-31T22:49:08.794Z,9.19
2022-08-31T22:51:40.118Z,9.04
2022-08-31T22:54:11.217Z,9.04
2022-08-31T22:56:42.995Z,9.10
2022-08-31T22:59:14.742Z,9.07
2022-08-31T23:01:46.643Z,8.92
2022-08-31T23:04:19.846Z,8.98
2022-08-31T23:06:51.345Z,8.86
2022-08-31T23:09:27.189Z,8.69
2022-08-31T23:11:58.380Z,8.87
2022-08-31T23:14:28.732Z,8.90
2022-08-31T23:17:02.870Z,8.91
2022-08-31T23:19:36.799Z,8.78
2022-08-31T23:22:12.751Z,8.74
2022-08-31T23:24:47.004Z,8.80
2022-08-31T23:27:23.503Z,8.80
2022-08-31T23:29:53.623Z,8.78
2022-08-31T23:32:29.629Z,8.69
2022-08-31T23:34:58.431Z,8.68
2022-08-31T23:37:30.597Z,8.66
2022-08-31T23:40:01.978Z,8.53
2022-08-31T23:42:34.070Z,8.72
2022-08-31T23:45:02.997Z,8.65
2022-08-31T23:47:35.103Z,8.60
2022-08-31T23:50:04.858Z,8.65
2022-08-31T23:52:43.268Z,8.57
2022-08-31T23:55:13.555Z,8.56
2022-08-31T23:57:46.339Z,8.54
